sensor_id;sensor_type;location;lat;lon;timestamp;pressure;altitude;pressure_sealevel;temperature;humidity
20630;BME280;17386;43.846;25.950;2023-07-09T00:01:38;101433.91;;;21.27;nan
20630;BME280;17386;43.846;25.950;2023-07-09T00:04:04;101442.34;;;21.22;nan
20630;BME280;17386;43.846;25.950;2023-07-09T00:06:29;101442.66;;;21.18;nan
20630;BME280;17386;43.846;25.950;2023-07-09T00:08:55;101442.09;;;21.13;nan
20630;BME280;17386;43.846;25.950;2023-07-09T00:11:20;101440.91;;;21.04;nan
20630;BME280;17386;43.846;25.950;2023-07-09T00:13:45;101439.69;;;20.95;nan
20630;BME280;17386;43.846;25.950;2023-07-09T00:16:16;101444.34;;;20.93;nan
20630;BME280;17386;43.846;25.950;2023-07-09T00:18:44;101446.78;;;20.84;nan
20630;BME280;17386;43.846;25.950;2023-07-09T00:21:10;101449.16;;;20.75;nan
20630;BME280;17386;43.846;25.950;2023-07-09T00:23:35;101453.88;;;20.72;nan
20630;BME280;17386;43.846;25.950;2023-07-09T00:26:11;101455.59;;;20.60;nan
20630;BME280;17386;43.846;25.950;2023-07-09T00:28:39;101444.72;;;20.47;nan
20630;BME280;17386;43.846;25.950;2023-07-09T00:31:05;101455.72;;;20.44;nan
20630;BME280;17386;43.846;25.950;2023-07-09T00:33:30;101452.50;;;20.38;nan
20630;BME280;17386;43.846;25.950;2023-07-09T00:35:58;101454.97;;;20.28;nan
20630;BME280;17386;43.846;25.950;2023-07-09T00:38:24;101455.06;;;20.27;nan
20630;BME280;17386;43.846;25.950;2023-07-09T00:43:27;101447.06;;;20.25;nan
20630;BME280;17386;43.846;25.950;2023-07-09T00:48:43;101445.75;;;20.18;nan
20630;BME280;17386;43.846;25.950;2023-07-09T00:51:19;101441.50;;;20.14;nan
20630;BME280;17386;43.846;25.950;2023-07-09T00:53:46;101444.41;;;20.11;nan
20630;BME280;17386;43.846;25.950;2023-07-09T00:56:27;101445.34;;;20.10;nan
20630;BME280;17386;43.846;25.950;2023-07-09T00:58:55;101447.28;;;20.08;nan
20630;BME280;17386;43.846;25.950;2023-07-09T01:01:26;101439.41;;;20.05;nan
20630;BME280;17386;43.846;25.950;2023-07-09T01:03:56;101440.34;;;20.04;nan
20630;BME280;17386;43.846;25.950;2023-07-09T01:06:32;101440.34;;;20.04;nan
20630;BME280;17386;43.846;25.950;2023-07-09T01:09:02;101435.84;;;20.04;nan
20630;BME280;17386;43.846;25.950;2023-07-09T01:11:29;101429.75;;;20.01;nan
20630;BME280;17386;43.846;25.950;2023-07-09T01:13:58;101431.59;;;20.00;nan
20630;BME280;17386;43.846;25.950;2023-07-09T01:16:27;101440.56;;;20.01;nan
20630;BME280;17386;43.846;25.950;2023-07-09T01:18:54;101443.25;;;20.01;nan
20630;BME280;17386;43.846;25.950;2023-07-09T01:21:20;101440.56;;;20.01;nan
20630;BME280;17386;43.846;25.950;2023-07-09T01:23:48;101445.09;;;20.00;nan
20630;BME280;17386;43.846;25.950;2023-07-09T01:26:17;101444.97;;;20.02;nan
20630;BME280;17386;43.846;25.950;2023-07-09T01:28:43;101440.75;;;19.98;nan
20630;BME280;17386;43.846;25.950;2023-07-09T01:31:12;101445.94;;;20.01;nan
20630;BME280;17386;43.846;25.950;2023-07-09T01:33:39;101446.16;;;19.98;nan
20630;BME280;17386;43.846;25.950;2023-07-09T01:36:08;101442.66;;;19.95;nan
20630;BME280;17386;43.846;25.950;2023-07-09T01:38:35;101449.72;;;19.98;nan
20630;BME280;17386;43.846;25.950;2023-07-09T01:41:01;101457.81;;;19.98;nan
20630;BME280;17386;43.846;25.950;2023-07-09T01:43:28;101457.97;;;19.95;nan
20630;BME280;17386;43.846;25.950;2023-07-09T01:45:54;101464.34;;;19.94;nan
20630;BME280;17386;43.846;25.950;2023-07-09T01:48:24;101468.19;;;19.90;nan
20630;BME280;17386;43.846;25.950;2023-07-09T01:50:50;101466.84;;;19.83;nan
20630;BME280;17386;43.846;25.950;2023-07-09T01:53:21;101470.81;;;19.77;nan
20630;BME280;17386;43.846;25.950;2023-07-09T01:55:49;101470.81;;;19.77;nan
20630;BME280;17386;43.846;25.950;2023-07-09T01:58:15;101468.13;;;19.77;nan
20630;BME280;17386;43.846;25.950;2023-07-09T02:00:41;101471.69;;;19.78;nan
20630;BME280;17386;43.846;25.950;2023-07-09T02:03:07;101472.06;;;19.72;nan
20630;BME280;17386;43.846;25.950;2023-07-09T02:05:35;101479.38;;;19.70;nan
20630;BME280;17386;43.846;25.950;2023-07-09T02:08:01;101480.25;;;19.70;nan
20630;BME280;17386;43.846;25.950;2023-07-09T02:10:27;101488.50;;;19.67;nan
20630;BME280;17386;43.846;25.950;2023-07-09T02:12:52;101484.47;;;19.60;nan
20630;BME280;17386;43.846;25.950;2023-07-09T02:15:17;101493.84;;;19.53;nan
20630;BME280;17386;43.846;25.950;2023-07-09T02:17:43;101483.28;;;19.50;nan
20630;BME280;17386;43.846;25.950;2023-07-09T02:20:10;101492.22;;;19.50;nan
20630;BME280;17386;43.846;25.950;2023-07-09T02:22:37;101502.03;;;19.51;nan
20630;BME280;17386;43.846;25.950;2023-07-09T02:25:03;101506.47;;;19.52;nan
20630;BME280;17386;43.846;25.950;2023-07-09T02:27:29;101514.53;;;19.52;nan
20630;BME280;17386;43.846;25.950;2023-07-09T02:29:54;101503.97;;;19.49;nan
20630;BME280;17386;43.846;25.950;2023-07-09T02:32:22;101506.84;;;19.46;nan
20630;BME280;17386;43.846;25.950;2023-07-09T02:34:48;101513.19;;;19.45;nan
20630;BME280;17386;43.846;25.950;2023-07-09T02:37:16;101514.03;;;19.46;nan
20630;BME280;17386;43.846;25.950;2023-07-09T02:39:42;101523.88;;;19.47;nan
20630;BME280;17386;43.846;25.950;2023-07-09T02:42:12;101524.72;;;19.47;nan
20630;BME280;17386;43.846;25.950;2023-07-09T02:44:39;101519.63;;;19.43;nan
20630;BME280;17386;43.846;25.950;2023-07-09T02:47:04;101518.75;;;19.42;nan
20630;BME280;17386;43.846;25.950;2023-07-09T02:49:30;101516.25;;;19.39;nan
20630;BME280;17386;43.846;25.950;2023-07-09T02:51:55;101528.38;;;19.46;nan
20630;BME280;17386;43.846;25.950;2023-07-09T02:54:21;101521.16;;;19.47;nan
20630;BME280;17386;43.846;25.950;2023-07-09T02:56:46;101524.72;;;19.47;nan
20630;BME280;17386;43.846;25.950;2023-07-09T02:59:12;101515.97;;;19.44;nan
20630;BME280;17386;43.846;25.950;2023-07-09T03:01:38;101513.56;;;19.39;nan
20630;BME280;17386;43.846;25.950;2023-07-09T03:04:05;101525.59;;;19.48;nan
20630;BME280;17386;43.846;25.950;2023-07-09T03:06:32;101521.28;;;19.45;nan
20630;BME280;17386;43.846;25.950;2023-07-09T03:09:02;101522.03;;;19.47;nan
20630;BME280;17386;43.846;25.950;2023-07-09T03:11:30;101527.53;;;19.46;nan
20630;BME280;17386;43.846;25.950;2023-07-09T03:13:56;101529.34;;;19.45;nan
20630;BME280;17386;43.846;25.950;2023-07-09T03:16:22;101527.88;;;19.39;nan
20630;BME280;17386;43.846;25.950;2023-07-09T03:18:48;101532.69;;;19.34;nan
20630;BME280;17386;43.846;25.950;2023-07-09T03:21:13;101540.69;;;19.36;nan
20630;BME280;17386;43.846;25.950;2023-07-09T03:23:39;101544.06;;;19.39;nan
20630;BME280;17386;43.846;25.950;2023-07-09T03:26:04;101541.91;;;19.30;nan
20630;BME280;17386;43.846;25.950;2023-07-09T03:28:31;101534.81;;;19.29;nan
20630;BME280;17386;43.846;25.950;2023-07-09T03:30:57;101542.44;;;19.21;nan
20630;BME280;17386;43.846;25.950;2023-07-09T03:33:22;101549.94;;;19.16;nan
20630;BME280;17386;43.846;25.950;2023-07-09T03:35:49;101551.50;;;19.20;nan
20630;BME280;17386;43.846;25.950;2023-07-09T03:38:14;101536.53;;;19.30;nan
20630;BME280;17386;43.846;25.950;2023-07-09T03:40:40;101536.94;;;19.38;nan
20630;BME280;17386;43.846;25.950;2023-07-09T03:43:05;101531.19;;;19.45;nan
20630;BME280;17386;43.846;25.950;2023-07-09T03:45:33;101530.50;;;19.55;nan
20630;BME280;17386;43.846;25.950;2023-07-09T03:47:59;101531.91;;;19.62;nan
20630;BME280;17386;43.846;25.950;2023-07-09T03:50:24;101535.78;;;19.73;nan
20630;BME280;17386;43.846;25.950;2023-07-09T03:52:50;101537.53;;;19.74;nan
20630;BME280;17386;43.846;25.950;2023-07-09T03:55:15;101533.38;;;19.82;nan
20630;BME280;17386;43.846;25.950;2023-07-09T03:57:41;101544.00;;;19.85;nan
20630;BME280;17386;43.846;25.950;2023-07-09T04:00:08;101550.91;;;19.89;nan
20630;BME280;17386;43.846;25.950;2023-07-09T04:02:37;101552.28;;;19.97;nan
20630;BME280;17386;43.846;25.950;2023-07-09T04:05:03;101552.09;;;20.00;nan
20630;BME280;17386;43.846;25.950;2023-07-09T04:07:29;101554.31;;;20.07;nan
20630;BME280;17386;43.846;25.950;2023-07-09T04:09:54;101545.16;;;20.10;nan
20630;BME280;17386;43.846;25.950;2023-07-09T04:12:20;101554.78;;;20.14;nan
20630;BME280;17386;43.846;25.950;2023-07-09T04:14:45;101545.56;;;20.18;nan
20630;BME280;17386;43.846;25.950;2023-07-09T04:17:11;101541.69;;;20.22;nan
20630;BME280;17386;43.846;25.950;2023-07-09T04:19:36;101548.53;;;20.28;nan
20630;BME280;17386;43.846;25.950;2023-07-09T04:22:03;101550.84;;;20.34;nan
20630;BME280;17386;43.846;25.950;2023-07-09T04:24:31;101551.97;;;20.44;nan
20630;BME280;17386;43.846;25.950;2023-07-09T04:26:58;101541.78;;;20.49;nan
20630;BME280;17386;43.846;25.950;2023-07-09T04:29:31;101549.50;;;20.55;nan
20630;BME280;17386;43.846;25.950;2023-07-09T04:31:59;101538.28;;;20.61;nan
20630;BME280;17386;43.846;25.950;2023-07-09T04:34:24;101545.69;;;20.72;nan
20630;BME280;17386;43.846;25.950;2023-07-09T04:36:49;101541.94;;;20.74;nan
20630;BME280;17386;43.846;25.950;2023-07-09T04:39:15;101539.81;;;20.80;nan
20630;BME280;17386;43.846;25.950;2023-07-09T04:41:40;101543.16;;;20.83;nan
20630;BME280;17386;43.846;25.950;2023-07-09T04:44:06;101547.47;;;20.86;nan
20630;BME280;17386;43.846;25.950;2023-07-09T04:46:31;101550.75;;;20.91;nan
20630;BME280;17386;43.846;25.950;2023-07-09T04:48:56;101546.22;;;20.91;nan
20630;BME280;17386;43.846;25.950;2023-07-09T04:51:22;101556.81;;;20.94;nan
20630;BME280;17386;43.846;25.950;2023-07-09T04:53:47;101558.16;;;21.01;nan
20630;BME280;17386;43.846;25.950;2023-07-09T04:56:14;101557.63;;;21.09;nan
20630;BME280;17386;43.846;25.950;2023-07-09T04:58:39;101562.63;;;21.15;nan
20630;BME280;17386;43.846;25.950;2023-07-09T05:01:05;101551.94;;;21.14;nan
20630;BME280;17386;43.846;25.950;2023-07-09T05:03:30;101554.66;;;21.26;nan
20630;BME280;17386;43.846;25.950;2023-07-09T05:05:55;101555.25;;;21.32;nan
20630;BME280;17386;43.846;25.950;2023-07-09T05:08:21;101555.91;;;21.35;nan
20630;BME280;17386;43.846;25.950;2023-07-09T05:10:50;101560.56;;;21.46;nan
20630;BME280;17386;43.846;25.950;2023-07-09T05:13:16;101556.28;;;21.56;nan
20630;BME280;17386;43.846;25.950;2023-07-09T05:15:46;101548.28;;;21.67;nan
20630;BME280;17386;43.846;25.950;2023-07-09T05:18:13;101552.28;;;21.74;nan
20630;BME280;17386;43.846;25.950;2023-07-09T05:20:39;101555.44;;;21.81;nan
20630;BME280;17386;43.846;25.950;2023-07-09T05:23:10;101551.44;;;21.87;nan
20630;BME280;17386;43.846;25.950;2023-07-09T05:25:36;101552.53;;;21.97;nan
20630;BME280;17386;43.846;25.950;2023-07-09T05:28:02;101547.31;;;21.94;nan
20630;BME280;17386;43.846;25.950;2023-07-09T05:30:28;101555.00;;;21.87;nan
20630;BME280;17386;43.846;25.950;2023-07-09T05:32:53;101554.03;;;21.88;nan
20630;BME280;17386;43.846;25.950;2023-07-09T05:35:21;101552.53;;;21.97;nan
20630;BME280;17386;43.846;25.950;2023-07-09T05:37:46;101550.25;;;22.03;nan
20630;BME280;17386;43.846;25.950;2023-07-09T05:40:12;101546.69;;;22.16;nan
20630;BME280;17386;43.846;25.950;2023-07-09T05:42:38;101538.00;;;22.23;nan
20630;BME280;17386;43.846;25.950;2023-07-09T05:45:04;101549.06;;;22.33;nan
20630;BME280;17386;43.846;25.950;2023-07-09T05:47:30;101545.69;;;22.29;nan
20630;BME280;17386;43.846;25.950;2023-07-09T05:49:56;101553.78;;;22.42;nan
20630;BME280;17386;43.846;25.950;2023-07-09T05:52:23;101538.84;;;22.36;nan
20630;BME280;17386;43.846;25.950;2023-07-09T05:54:50;101546.47;;;22.19;nan
20630;BME280;17386;43.846;25.950;2023-07-09T05:57:16;101548.19;;;22.32;nan
20630;BME280;17386;43.846;25.950;2023-07-09T05:59:43;101541.97;;;22.43;nan
20630;BME280;17386;43.846;25.950;2023-07-09T06:02:13;101549.63;;;22.62;nan
20630;BME280;17386;43.846;25.950;2023-07-09T06:04:39;101542.25;;;22.64;nan
20630;BME280;17386;43.846;25.950;2023-07-09T06:07:04;101547.00;;;22.73;nan
20630;BME280;17386;43.846;25.950;2023-07-09T06:09:30;101553.28;;;22.74;nan
20630;BME280;17386;43.846;25.950;2023-07-09T06:11:57;101547.00;;;22.86;nan
20630;BME280;17386;43.846;25.950;2023-07-09T06:14:22;101538.91;;;22.97;nan
20630;BME280;17386;43.846;25.950;2023-07-09T06:16:49;101542.00;;;22.92;nan
20630;BME280;17386;43.846;25.950;2023-07-09T06:19:16;101540.47;;;22.88;nan
20630;BME280;17386;43.846;25.950;2023-07-09T06:21:41;101541.91;;;23.05;nan
20630;BME280;17386;43.846;25.950;2023-07-09T06:24:08;101537.06;;;23.22;nan
20630;BME280;17386;43.846;25.950;2023-07-09T06:26:33;101538.34;;;23.29;nan
20630;BME280;17386;43.846;25.950;2023-07-09T06:28:59;101537.63;;;23.38;nan
20630;BME280;17386;43.846;25.950;2023-07-09T06:31:24;101548.25;;;23.52;nan
20630;BME280;17386;43.846;25.950;2023-07-09T06:33:50;101540.06;;;23.65;nan
20630;BME280;17386;43.846;25.950;2023-07-09T06:36:17;101540.44;;;23.71;nan
20630;BME280;17386;43.846;25.950;2023-07-09T06:38:42;101536.75;;;23.72;nan
20630;BME280;17386;43.846;25.950;2023-07-09T06:41:07;101532.09;;;23.86;nan
20630;BME280;17386;43.846;25.950;2023-07-09T06:43:34;101528.63;;;23.95;nan
20630;BME280;17386;43.846;25.950;2023-07-09T06:46:00;101525.94;;;24.06;nan
20630;BME280;17386;43.846;25.950;2023-07-09T06:48:27;101530.53;;;24.17;nan
20630;BME280;17386;43.846;25.950;2023-07-09T06:50:53;101529.13;;;24.22;nan
20630;BME280;17386;43.846;25.950;2023-07-09T06:53:20;101530.03;;;24.34;nan
20630;BME280;17386;43.846;25.950;2023-07-09T06:55:46;101528.31;;;24.33;nan
20630;BME280;17386;43.846;25.950;2023-07-09T06:58:12;101529.19;;;24.45;nan
20630;BME280;17386;43.846;25.950;2023-07-09T07:00:38;101521.63;;;24.60;nan
20630;BME280;17386;43.846;25.950;2023-07-09T07:03:04;101528.88;;;24.70;nan
20630;BME280;17386;43.846;25.950;2023-07-09T07:05:30;101529.63;;;24.72;nan
20630;BME280;17386;43.846;25.950;2023-07-09T07:07:57;101528.34;;;24.76;nan
20630;BME280;17386;43.846;25.950;2023-07-09T07:10:23;101528.56;;;24.96;nan
20630;BME280;17386;43.846;25.950;2023-07-09T07:12:49;101534.59;;;25.10;nan
20630;BME280;17386;43.846;25.950;2023-07-09T07:15:16;101534.16;;;25.26;nan
20630;BME280;17386;43.846;25.950;2023-07-09T07:17:43;101528.78;;;25.36;nan
20630;BME280;17386;43.846;25.950;2023-07-09T07:20:10;101537.91;;;25.46;nan
20630;BME280;17386;43.846;25.950;2023-07-09T07:22:35;101531.38;;;25.58;nan
20630;BME280;17386;43.846;25.950;2023-07-09T07:25:01;101530.59;;;25.68;nan
20630;BME280;17386;43.846;25.950;2023-07-09T07:27:26;101531.81;;;25.75;nan
20630;BME280;17386;43.846;25.950;2023-07-09T07:29:51;101527.69;;;25.80;nan
20630;BME280;17386;43.846;25.950;2023-07-09T07:32:17;101520.16;;;25.94;nan
20630;BME280;17386;43.846;25.950;2023-07-09T07:34:43;101515.91;;;26.01;nan
20630;BME280;17386;43.846;25.950;2023-07-09T07:37:08;101514.66;;;26.14;nan
20630;BME280;17386;43.846;25.950;2023-07-09T07:39:33;101526.06;;;26.29;nan
20630;BME280;17386;43.846;25.950;2023-07-09T07:41:59;101515.91;;;26.31;nan
20630;BME280;17386;43.846;25.950;2023-07-09T07:44:24;101520.84;;;26.16;nan
20630;BME280;17386;43.846;25.950;2023-07-09T07:46:49;101519.78;;;26.29;nan
20630;BME280;17386;43.846;25.950;2023-07-09T07:49:15;101508.63;;;26.41;nan
20630;BME280;17386;43.846;25.950;2023-07-09T07:51:40;101504.53;;;26.57;nan
20630;BME280;17386;43.846;25.950;2023-07-09T07:54:07;101509.44;;;26.72;nan
20630;BME280;17386;43.846;25.950;2023-07-09T07:56:36;101510.84;;;26.57;nan
20630;BME280;17386;43.846;25.950;2023-07-09T07:59:02;101508.72;;;26.70;nan
20630;BME280;17386;43.846;25.950;2023-07-09T08:01:27;101509.13;;;26.76;nan
20630;BME280;17386;43.846;25.950;2023-07-09T08:03:53;101504.72;;;26.94;nan
20630;BME280;17386;43.846;25.950;2023-07-09T08:06:18;101499.72;;;27.09;nan
20630;BME280;17386;43.846;25.950;2023-07-09T08:08:44;101499.28;;;27.23;nan
20630;BME280;17386;43.846;25.950;2023-07-09T08:11:09;101499.16;;;27.34;nan
20630;BME280;17386;43.846;25.950;2023-07-09T08:13:35;101480.34;;;27.31;nan
20630;BME280;17386;43.846;25.950;2023-07-09T08:16:02;101476.91;;;27.39;nan
20630;BME280;17386;43.846;25.950;2023-07-09T08:18:28;101477.47;;;27.33;nan
20630;BME280;17386;43.846;25.950;2023-07-09T08:20:53;101482.63;;;27.45;nan
20630;BME280;17386;43.846;25.950;2023-07-09T08:23:18;101481.31;;;27.49;nan
20630;BME280;17386;43.846;25.950;2023-07-09T08:25:52;101486.91;;;27.58;nan
20630;BME280;17386;43.846;25.950;2023-07-09T08:28:18;101484.31;;;27.75;nan
20630;BME280;17386;43.846;25.950;2023-07-09T08:30:43;101485.44;;;27.83;nan
20630;BME280;17386;43.846;25.950;2023-07-09T08:33:08;101481.78;;;27.92;nan
20630;BME280;17386;43.846;25.950;2023-07-09T08:35:35;101489.72;;;27.95;nan
20630;BME280;17386;43.846;25.950;2023-07-09T08:38:00;101477.59;;;28.07;nan
20630;BME280;17386;43.846;25.950;2023-07-09T08:40:26;101470.88;;;28.19;nan
20630;BME280;17386;43.846;25.950;2023-07-09T08:42:57;101479.25;;;28.18;nan
20630;BME280;17386;43.846;25.950;2023-07-09T08:48:04;101472.31;;;28.23;nan
20630;BME280;17386;43.846;25.950;2023-07-09T08:50:43;101477.84;;;28.41;nan
20630;BME280;17386;43.846;25.950;2023-07-09T08:53:19;101474.28;;;28.58;nan
20630;BME280;17386;43.846;25.950;2023-07-09T08:55:49;101476.94;;;28.68;nan
20630;BME280;17386;43.846;25.950;2023-07-09T08:58:28;101472.97;;;28.80;nan
20630;BME280;17386;43.846;25.950;2023-07-09T09:00:57;101477.66;;;28.88;nan
20630;BME280;17386;43.846;25.950;2023-07-09T09:06:20;101479.19;;;28.82;nan
20630;BME280;17386;43.846;25.950;2023-07-09T09:08:56;101472.53;;;28.85;nan
20630;BME280;17386;43.846;25.950;2023-07-09T09:11:48;101470.69;;;29.03;nan
20630;BME280;17386;43.846;25.950;2023-07-09T09:16:54;101475.28;;;29.21;nan
20630;BME280;17386;43.846;25.950;2023-07-09T09:19:29;101471.78;;;29.36;nan
20630;BME280;17386;43.846;25.950;2023-07-09T09:22:05;101471.25;;;29.51;nan
20630;BME280;17386;43.846;25.950;2023-07-09T09:24:39;101478.19;;;29.63;nan
20630;BME280;17386;43.846;25.950;2023-07-09T09:27:08;101461.78;;;29.71;nan
20630;BME280;17386;43.846;25.950;2023-07-09T09:29:34;101461.88;;;29.79;nan
20630;BME280;17386;43.846;25.950;2023-07-09T09:32:08;101466.88;;;29.92;nan
20630;BME280;17386;43.846;25.950;2023-07-09T09:34:37;101458.50;;;29.93;nan
20630;BME280;17386;43.846;25.950;2023-07-09T09:37:10;101455.13;;;30.00;nan
20630;BME280;17386;43.846;25.950;2023-07-09T09:39:38;101460.25;;;30.03;nan
20630;BME280;17386;43.846;25.950;2023-07-09T09:42:07;101456.41;;;30.13;nan
20630;BME280;17386;43.846;25.950;2023-07-09T09:44:36;101455.03;;;30.17;nan
20630;BME280;17386;43.846;25.950;2023-07-09T09:47:03;101460.91;;;30.22;nan
20630;BME280;17386;43.846;25.950;2023-07-09T09:49:29;101455.41;;;30.22;nan
20630;BME280;17386;43.846;25.950;2023-07-09T09:52:01;101455.81;;;30.36;nan
20630;BME280;17386;43.846;25.950;2023-07-09T09:54:28;101454.50;;;30.56;nan
20630;BME280;17386;43.846;25.950;2023-07-09T09:56:58;101463.13;;;30.69;nan
20630;BME280;17386;43.846;25.950;2023-07-09T09:59:36;101454.91;;;30.86;nan
20630;BME280;17386;43.846;25.950;2023-07-09T10:02:18;101451.47;;;31.08;nan
20630;BME280;17386;43.846;25.950;2023-07-09T10:04:44;101459.75;;;31.24;nan
20630;BME280;17386;43.846;25.950;2023-07-09T10:07:21;101441.53;;;31.48;nan
20630;BME280;17386;43.846;25.950;2023-07-09T10:09:50;101454.66;;;31.77;nan
20630;BME280;17386;43.846;25.950;2023-07-09T10:21:09;101425.44;;;33.98;nan
20630;BME280;17386;43.846;25.950;2023-07-09T10:24:05;101425.31;;;34.58;nan
20630;BME280;17386;43.846;25.950;2023-07-09T10:27:19;101421.06;;;35.47;nan
20630;BME280;17386;43.846;25.950;2023-07-09T10:30:00;101417.88;;;36.20;nan
20630;BME280;17386;43.846;25.950;2023-07-09T10:35:21;101416.38;;;37.24;nan
20630;BME280;17386;43.846;25.950;2023-07-09T10:40:27;101410.59;;;37.59;nan
20630;BME280;17386;43.846;25.950;2023-07-09T10:42:58;101405.53;;;38.14;nan
20630;BME280;17386;43.846;25.950;2023-07-09T10:45:39;101402.69;;;38.66;nan
20630;BME280;17386;43.846;25.950;2023-07-09T10:48:12;101400.03;;;39.09;nan
20630;BME280;17386;43.846;25.950;2023-07-09T10:50:49;101400.66;;;39.61;nan
20630;BME280;17386;43.846;25.950;2023-07-09T10:55:59;101397.88;;;40.46;nan
20630;BME280;17386;43.846;25.950;2023-07-09T11:01:25;101395.34;;;40.26;nan
20630;BME280;17386;43.846;25.950;2023-07-09T11:03:56;101399.38;;;40.42;nan
20630;BME280;17386;43.846;25.950;2023-07-09T11:08:55;101398.66;;;40.65;nan
20630;BME280;17386;43.846;25.950;2023-07-09T11:11:33;101393.88;;;40.95;nan
20630;BME280;17386;43.846;25.950;2023-07-09T11:14:08;101389.66;;;41.16;nan
20630;BME280;17386;43.846;25.950;2023-07-09T11:16:39;101398.88;;;41.28;nan
20630;BME280;17386;43.846;25.950;2023-07-09T11:19:13;101398.28;;;41.15;nan
20630;BME280;17386;43.846;25.950;2023-07-09T11:22:02;101385.78;;;41.06;nan
20630;BME280;17386;43.846;25.950;2023-07-09T11:24:34;101385.09;;;40.68;nan
20630;BME280;17386;43.846;25.950;2023-07-09T11:27:02;101387.13;;;40.61;nan
20630;BME280;17386;43.846;25.950;2023-07-09T11:29:28;101381.31;;;40.51;nan
20630;BME280;17386;43.846;25.950;2023-07-09T11:32:07;101374.88;;;40.02;nan
20630;BME280;17386;43.846;25.950;2023-07-09T11:34:45;101370.75;;;39.31;nan
20630;BME280;17386;43.846;25.950;2023-07-09T11:37:13;101362.16;;;37.82;nan
20630;BME280;17386;43.846;25.950;2023-07-09T11:39:44;101372.88;;;37.32;nan
20630;BME280;17386;43.846;25.950;2023-07-09T11:45:02;101369.84;;;35.86;nan
20630;BME280;17386;43.846;25.950;2023-07-09T11:47:37;101362.47;;;35.30;nan
20630;BME280;17386;43.846;25.950;2023-07-09T11:50:13;101361.38;;;34.75;nan
20630;BME280;17386;43.846;25.950;2023-07-09T11:55:46;101354.81;;;33.97;nan
20630;BME280;17386;43.846;25.950;2023-07-09T11:58:17;101355.31;;;33.57;nan
20630;BME280;17386;43.846;25.950;2023-07-09T12:00:54;101354.28;;;33.35;nan
20630;BME280;17386;43.846;25.950;2023-07-09T12:03:34;101350.22;;;33.31;nan
20630;BME280;17386;43.846;25.950;2023-07-09T12:06:07;101337.66;;;33.13;nan
20630;BME280;17386;43.846;25.950;2023-07-09T12:08:41;101349.44;;;33.07;nan
20630;BME280;17386;43.846;25.950;2023-07-09T12:11:32;101347.81;;;32.98;nan
20630;BME280;17386;43.846;25.950;2023-07-09T12:16:41;101348.31;;;32.56;nan
20630;BME280;17386;43.846;25.950;2023-07-09T12:19:10;101338.78;;;32.44;nan
20630;BME280;17386;43.846;25.950;2023-07-09T12:21:39;101342.97;;;32.39;nan
20630;BME280;17386;43.846;25.950;2023-07-09T12:24:29;101333.47;;;32.11;nan
20630;BME280;17386;43.846;25.950;2023-07-09T12:26:59;101327.06;;;32.19;nan
20630;BME280;17386;43.846;25.950;2023-07-09T12:29:27;101326.59;;;32.15;nan
20630;BME280;17386;43.846;25.950;2023-07-09T12:31:57;101332.34;;;31.97;nan
20630;BME280;17386;43.846;25.950;2023-07-09T12:34:24;101328.88;;;32.03;nan
20630;BME280;17386;43.846;25.950;2023-07-09T12:36:53;101328.94;;;32.18;nan
20630;BME280;17386;43.846;25.950;2023-07-09T12:39:28;101329.00;;;32.10;nan
20630;BME280;17386;43.846;25.950;2023-07-09T12:41:58;101327.75;;;31.90;nan
20630;BME280;17386;43.846;25.950;2023-07-09T12:44:26;101336.81;;;31.59;nan
20630;BME280;17386;43.846;25.950;2023-07-09T12:46:56;101330.69;;;31.41;nan
20630;BME280;17386;43.846;25.950;2023-07-09T12:49:25;101323.34;;;31.09;nan
20630;BME280;17386;43.846;25.950;2023-07-09T12:51:56;101319.03;;;31.22;nan
20630;BME280;17386;43.846;25.950;2023-07-09T12:54:24;101318.34;;;31.45;nan
20630;BME280;17386;43.846;25.950;2023-07-09T12:56:55;101310.34;;;31.66;nan
20630;BME280;17386;43.846;25.950;2023-07-09T12:59:28;101314.59;;;31.69;nan
20630;BME280;17386;43.846;25.950;2023-07-09T13:02:14;101313.91;;;31.75;nan
20630;BME280;17386;43.846;25.950;2023-07-09T13:04:40;101302.06;;;31.74;nan
20630;BME280;17386;43.846;25.950;2023-07-09T13:07:29;101307.06;;;31.71;nan
20630;BME280;17386;43.846;25.950;2023-07-09T13:09:56;101305.44;;;31.45;nan
20630;BME280;17386;43.846;25.950;2023-07-09T13:12:31;101306.38;;;31.29;nan
20630;BME280;17386;43.846;25.950;2023-07-09T13:14:58;101299.63;;;31.40;nan
20630;BME280;17386;43.846;25.950;2023-07-09T13:17:34;101298.59;;;31.41;nan
20630;BME280;17386;43.846;25.950;2023-07-09T13:20:02;101300.28;;;31.50;nan
20630;BME280;17386;43.846;25.950;2023-07-09T13:22:29;101293.50;;;31.69;nan
20630;BME280;17386;43.846;25.950;2023-07-09T13:24:55;101288.50;;;31.81;nan
20630;BME280;17386;43.846;25.950;2023-07-09T13:27:22;101282.94;;;31.89;nan
20630;BME280;17386;43.846;25.950;2023-07-09T13:29:49;101284.44;;;32.00;nan
20630;BME280;17386;43.846;25.950;2023-07-09T13:32:16;101279.78;;;32.00;nan
20630;BME280;17386;43.846;25.950;2023-07-09T13:34:44;101290.91;;;32.07;nan
20630;BME280;17386;43.846;25.950;2023-07-09T13:37:15;101289.81;;;32.16;nan
20630;BME280;17386;43.846;25.950;2023-07-09T13:39:42;101278.50;;;32.11;nan
20630;BME280;17386;43.846;25.950;2023-07-09T13:42:14;101285.41;;;32.07;nan
20630;BME280;17386;43.846;25.950;2023-07-09T13:44:44;101285.09;;;32.02;nan
20630;BME280;17386;43.846;25.950;2023-07-09T13:47:16;101282.66;;;32.07;nan
20630;BME280;17386;43.846;25.950;2023-07-09T13:49:44;101276.72;;;32.18;nan
20630;BME280;17386;43.846;25.950;2023-07-09T13:52:20;101280.25;;;32.12;nan